Terminal Aerodrome Forecast
Issued by NWS Louisville, KY

Home | Current Version | Previous Version | Text Only | Print | Product List | Glossary On
Versions: 1 2 3 4 5 6 7 8 9 10 11 12 13 14 15 16 17 18 19
000
FTUS43 KLMK 231734
TAFSDF
TAF
KSDF 231734Z 2318/2424 09010KT P6SM OVC015
     FM231930 09010KT 6SM BR VCSH BKN024
     FM240000 09009KT P6SM VCSH OVC035
     FM240200 09009KT 5SM -SHRA OVC025
     FM240600 08005KT 4SM -RA OVC015=

USA.gov is the U.S. government's official web portal to all federal, state and local government web resources and services.